createdAt,value
2018-03-15T00:01:28.862Z,983.43
2018-03-15T00:02:28.730Z,983.39
2018-03-15T00:04:21.582Z,983.39
2018-03-15T00:05:21.496Z,983.36
2018-03-15T00:07:14.482Z,983.33
2018-03-15T00:08:14.354Z,983.28
2018-03-15T00:10:07.699Z,983.27
2018-03-15T00:11:07.597Z,983.30
2018-03-15T00:13:00.397Z,983.31
2018-03-15T00:14:00.278Z,983.30
2018-03-15T00:15:53.096Z,983.28
2018-03-15T00:16:52.988Z,983.30
2018-03-15T00:18:46.346Z,983.26
2018-03-15T00:19:46.251Z,983.26
2018-03-15T00:21:39.122Z,983.29
2018-03-15T00:22:38.998Z,983.26
2018-03-15T00:24:31.847Z,983.23
2018-03-15T00:25:31.760Z,983.23
2018-03-15T00:27:24.528Z,983.19
2018-03-15T00:28:24.400Z,983.23
2018-03-15T00:30:17.277Z,983.22
2018-03-15T00:31:17.167Z,983.16
2018-03-15T00:33:10.048Z,983.17
2018-03-15T00:34:09.905Z,983.18
2018-03-15T00:36:03.277Z,983.15
2018-03-15T00:37:03.176Z,983.11
2018-03-15T00:38:56.028Z,983.06
2018-03-15T00:39:55.915Z,983.02
2018-03-15T00:41:48.793Z,983.00
2018-03-15T00:42:48.671Z,982.99
2018-03-15T00:44:56.682Z,982.98
2018-03-15T00:45:56.597Z,982.95
2018-03-15T00:47:52.482Z,982.96
2018-03-15T00:48:52.479Z,982.92
2018-03-15T00:50:52.744Z,982.88
2018-03-15T00:51:52.709Z,982.90
2018-03-15T00:53:48.463Z,982.85
2018-03-15T00:54:48.357Z,982.82
2018-03-15T00:56:41.305Z,982.77
2018-03-15T00:57:41.182Z,982.77
2018-03-15T00:59:35.590Z,982.77
2018-03-15T01:00:35.365Z,982.71
2018-03-15T01:02:28.723Z,982.73
2018-03-15T01:03:28.131Z,982.70
2018-03-15T01:05:22.421Z,982.66
2018-03-15T01:06:22.291Z,982.65
2018-03-15T01:08:15.586Z,982.58
2018-03-15T01:09:15.445Z,982.58
2018-03-15T01:11:15.841Z,982.59
2018-03-15T01:12:15.675Z,982.57
2018-03-15T01:14:08.963Z,982.55
2018-03-15T01:15:08.835Z,982.54
2018-03-15T01:17:01.691Z,982.54
2018-03-15T01:18:01.489Z,982.46
2018-03-15T01:19:54.242Z,982.45
2018-03-15T01:20:54.135Z,982.41
2018-03-15T01:22:46.907Z,982.38
2018-03-15T01:23:46.794Z,982.37
2018-03-15T01:25:39.526Z,982.36
2018-03-15T01:26:39.695Z,982.31
2018-03-15T01:28:32.186Z,982.28
2018-03-15T01:29:32.088Z,982.28
2018-03-15T01:31:24.834Z,982.17
2018-03-15T01:32:24.725Z,982.19
2018-03-15T01:34:17.481Z,982.17
2018-03-15T01:35:17.375Z,982.13
2018-03-15T01:37:10.134Z,982.10
2018-03-15T01:38:10.099Z,982.07
2018-03-15T01:40:02.865Z,982.05
2018-03-15T01:41:02.712Z,982.06
2018-03-15T01:42:55.413Z,982.04
2018-03-15T01:43:55.323Z,982.07
2018-03-15T01:45:48.073Z,982.04
2018-03-15T01:46:47.974Z,982.06
2018-03-15T01:48:40.725Z,982.01
2018-03-15T01:49:40.614Z,982.00
2018-03-15T01:51:33.434Z,982.05
2018-03-15T01:52:33.260Z,982.03
2018-03-15T01:54:25.997Z,982.03
2018-03-15T01:55:25.913Z,982.02
2018-03-15T01:57:18.687Z,982.02
2018-03-15T01:58:18.560Z,982.06
2018-03-15T02:00:11.309Z,982.03
2018-03-15T02:01:11.215Z,981.99
2018-03-15T02:03:03.974Z,982.03
2018-03-15T02:04:03.845Z,982.01
2018-03-15T02:05:56.584Z,982.01
2018-03-15T02:06:56.497Z,981.97
2018-03-15T02:08:49.279Z,982.03
2018-03-15T02:09:49.153Z,981.99
2018-03-15T02:11:41.886Z,981.94
2018-03-15T02:12:41.787Z,981.98
2018-03-15T02:14:34.543Z,981.94
2018-03-15T02:15:34.427Z,981.97
2018-03-15T02:17:27.171Z,981.93
2018-03-15T02:18:27.074Z,981.95
2018-03-15T02:20:19.837Z,981.93
2018-03-15T02:21:19.743Z,981.89
2018-03-15T02:23:12.516Z,981.91
2018-03-15T02:24:12.446Z,981.91
2018-03-15T02:26:05.145Z,981.85
2018-03-15T02:27:05.026Z,981.85
2018-03-15T02:28:57.782Z,981.79
2018-03-15T02:29:57.672Z,981.80
2018-03-15T02:31:50.543Z,981.76
2018-03-15T02:32:50.406Z,981.74
2018-03-15T02:34:43.192Z,981.72
2018-03-15T02:35:43.080Z,981.75
2018-03-15T02:37:35.813Z,981.67
2018-03-15T02:38:35.725Z,981.68
2018-03-15T02:40:28.539Z,981.68
2018-03-15T02:41:28.360Z,981.63
2018-03-15T02:43:21.113Z,981.64
2018-03-15T02:44:21.006Z,981.67
2018-03-15T02:46:13.775Z,981.63
2018-03-15T02:47:13.654Z,981.60
2018-03-15T02:49:06.406Z,981.62
2018-03-15T02:50:06.317Z,981.57
2018-03-15T02:51:59.255Z,981.61
2018-03-15T02:52:59.146Z,981.60
2018-03-15T02:54:51.891Z,981.66
2018-03-15T02:55:51.793Z,981.62
2018-03-15T02:57:45.080Z,981.64
2018-03-15T02:58:44.951Z,981.60
2018-03-15T03:00:37.705Z,981.61
2018-03-15T03:01:37.603Z,981.57
2018-03-15T03:03:30.372Z,981.64
2018-03-15T03:04:30.255Z,981.64
2018-03-15T03:06:23.020Z,981.63
2018-03-15T03:07:22.919Z,981.59
2018-03-15T03:09:15.692Z,981.58
2018-03-15T03:10:15.549Z,981.58
2018-03-15T03:12:08.330Z,981.64
2018-03-15T03:13:08.189Z,981.62
2018-03-15T03:15:01.084Z,981.63
2018-03-15T03:16:01.000Z,981.63
2018-03-15T03:17:53.813Z,981.68
2018-03-15T03:18:53.681Z,981.71
2018-03-15T03:20:46.602Z,981.69
2018-03-15T03:21:46.445Z,981.67
2018-03-15T03:23:39.299Z,981.65
2018-03-15T03:24:39.187Z,981.61
2018-03-15T03:26:32.043Z,981.59
2018-03-15T03:27:31.967Z,981.55
2018-03-15T03:29:24.705Z,981.53
2018-03-15T03:30:24.583Z,981.54
2018-03-15T03:32:17.345Z,981.47
2018-03-15T03:33:17.240Z,981.48
2018-03-15T03:35:10.044Z,981.42
2018-03-15T03:36:09.882Z,981.39
2018-03-15T03:38:02.620Z,981.39
2018-03-15T03:39:02.520Z,981.33
2018-03-15T03:40:55.293Z,981.35
2018-03-15T03:41:55.182Z,981.29
2018-03-15T03:43:47.917Z,981.32
2018-03-15T03:44:47.815Z,981.31
2018-03-15T03:46:40.595Z,981.30
2018-03-15T03:47:40.462Z,981.26
2018-03-15T03:49:33.206Z,981.27
2018-03-15T03:50:33.108Z,981.25
2018-03-15T03:52:25.894Z,981.30
2018-03-15T03:53:25.770Z,981.26
2018-03-15T03:55:18.513Z,981.28
2018-03-15T03:56:18.413Z,981.23
2018-03-15T03:58:11.167Z,981.24
2018-03-15T03:59:11.071Z,981.18
2018-03-15T04:01:03.801Z,981.20
2018-03-15T04:02:03.699Z,981.16
2018-03-15T04:03:56.463Z,981.19
2018-03-15T04:04:56.347Z,981.18
2018-03-15T04:06:49.112Z,981.23
2018-03-15T04:07:49.001Z,981.22
2018-03-15T04:09:42.784Z,981.19
2018-03-15T04:10:42.676Z,981.15
2018-03-15T04:12:35.538Z,981.13
2018-03-15T04:13:35.406Z,981.17
2018-03-15T04:15:28.403Z,981.16
2018-03-15T04:16:28.160Z,981.19
2018-03-15T04:18:21.025Z,981.17
2018-03-15T04:19:20.983Z,981.24
2018-03-15T04:21:13.772Z,981.26
2018-03-15T04:22:13.674Z,981.28
2018-03-15T04:24:06.929Z,981.30
2018-03-15T04:25:06.828Z,981.31
2018-03-15T04:26:59.682Z,981.30
2018-03-15T04:27:59.573Z,981.29
2018-03-15T04:29:52.335Z,981.26
2018-03-15T04:30:52.223Z,981.21
2018-03-15T04:32:45.096Z,981.26
2018-03-15T04:33:44.964Z,981.30
2018-03-15T04:35:37.715Z,981.27
2018-03-15T04:36:37.630Z,981.26
2018-03-15T04:38:30.474Z,981.25
2018-03-15T04:39:30.364Z,981.27
2018-03-15T04:41:23.112Z,981.26
2018-03-15T04:42:23.010Z,981.25
2018-03-15T04:44:15.772Z,981.27
2018-03-15T04:45:15.661Z,981.25
2018-03-15T04:47:08.915Z,981.23
2018-03-15T04:48:08.816Z,981.24
2018-03-15T04:50:01.700Z,981.22
2018-03-15T04:51:01.566Z,981.26
2018-03-15T04:52:54.414Z,981.24
2018-03-15T04:53:54.315Z,981.26
2018-03-15T04:55:47.177Z,981.28
2018-03-15T04:56:47.069Z,981.31
2018-03-15T04:58:39.843Z,981.24
2018-03-15T04:59:39.711Z,981.27
2018-03-15T05:01:32.734Z,981.28
2018-03-15T05:02:32.487Z,981.27
2018-03-15T05:04:25.344Z,981.31
2018-03-15T05:05:25.212Z,981.26
2018-03-15T05:07:18.152Z,981.34
2018-03-15T05:08:17.995Z,981.37
2018-03-15T05:10:11.236Z,981.40
2018-03-15T05:11:11.132Z,981.39
2018-03-15T05:13:04.071Z,981.37
2018-03-15T05:14:03.882Z,981.40
2018-03-15T05:15:56.733Z,981.35
2018-03-15T05:16:56.612Z,981.40
2018-03-15T05:18:49.489Z,981.39
2018-03-15T05:19:49.365Z,981.40
2018-03-15T05:21:42.224Z,981.44
2018-03-15T05:22:42.118Z,981.45
2018-03-15T05:24:34.906Z,981.51
2018-03-15T05:25:34.766Z,981.46
2018-03-15T05:27:27.623Z,981.47
2018-03-15T05:28:27.524Z,981.47
2018-03-15T05:30:20.388Z,981.45
2018-03-15T05:31:20.272Z,981.45
2018-03-15T05:33:13.112Z,981.39
2018-03-15T05:34:13.006Z,981.42
2018-03-15T05:36:05.888Z,981.37
2018-03-15T05:37:05.758Z,981.34
2018-03-15T05:38:58.608Z,981.35
2018-03-15T05:39:58.508Z,981.35
2018-03-15T05:41:51.390Z,981.36
2018-03-15T05:42:51.257Z,981.40
2018-03-15T05:44:44.118Z,981.35
2018-03-15T05:45:44.007Z,981.43
2018-03-15T05:47:36.871Z,981.45
2018-03-15T05:48:36.759Z,981.41
2018-03-15T05:50:29.628Z,981.46
2018-03-15T05:51:29.512Z,981.42
2018-03-15T05:53:22.393Z,981.45
2018-03-15T05:54:22.263Z,981.46
2018-03-15T05:56:15.116Z,981.48
2018-03-15T05:57:15.033Z,981.46
2018-03-15T05:59:07.882Z,981.44
2018-03-15T06:00:07.766Z,981.46
2018-03-15T06:02:00.618Z,981.39
2018-03-15T06:03:00.525Z,981.37
2018-03-15T06:04:53.382Z,981.28
2018-03-15T06:05:53.266Z,981.31
2018-03-15T06:07:46.132Z,981.30
2018-03-15T06:08:46.018Z,981.29
2018-03-15T06:10:38.875Z,981.27
2018-03-15T06:11:38.759Z,981.34
2018-03-15T06:13:32.019Z,981.35
2018-03-15T06:14:31.932Z,981.35
2018-03-15T06:16:24.779Z,981.36
2018-03-15T06:17:24.682Z,981.37
2018-03-15T06:19:17.557Z,981.37
2018-03-15T06:20:17.424Z,981.38
2018-03-15T06:22:10.305Z,981.39
2018-03-15T06:23:10.174Z,981.36
2018-03-15T06:25:03.027Z,981.37
2018-03-15T06:26:02.917Z,981.38
2018-03-15T06:27:55.793Z,981.37
2018-03-15T06:28:55.720Z,981.39
2018-03-15T06:30:48.545Z,981.30
2018-03-15T06:31:48.424Z,981.25
2018-03-15T06:33:41.292Z,981.19
2018-03-15T06:34:41.169Z,981.18
2018-03-15T06:36:34.010Z,981.13
2018-03-15T06:37:33.911Z,981.14
2018-03-15T06:39:27.042Z,981.06
2018-03-15T06:40:26.659Z,981.06
2018-03-15T06:42:19.520Z,981.03
2018-03-15T06:43:19.418Z,981.03
2018-03-15T06:45:12.288Z,981.05
2018-03-15T06:46:12.164Z,980.97
2018-03-15T06:48:05.057Z,980.99
2018-03-15T06:49:04.940Z,981.01
2018-03-15T06:50:57.769Z,980.94
2018-03-15T06:51:57.668Z,980.85
2018-03-15T06:53:50.998Z,980.89
2018-03-15T06:54:50.406Z,980.90
2018-03-15T06:56:43.605Z,980.84
2018-03-15T06:57:43.167Z,980.84
2018-03-15T06:59:36.012Z,980.81
2018-03-15T07:00:35.918Z,980.85
2018-03-15T07:02:28.782Z,980.84
2018-03-15T07:03:28.660Z,980.84
2018-03-15T07:05:21.510Z,980.82
2018-03-15T07:06:21.408Z,980.86
2018-03-15T07:08:14.396Z,980.83
2018-03-15T07:09:14.262Z,980.84
2018-03-15T07:11:07.111Z,980.76
2018-03-15T07:12:07.008Z,980.75
2018-03-15T07:14:00.299Z,980.70
2018-03-15T07:15:00.203Z,980.72
2018-03-15T07:16:53.019Z,980.71
2018-03-15T07:17:52.931Z,980.69
2018-03-15T07:19:45.782Z,980.65
2018-03-15T07:20:45.680Z,980.69
2018-03-15T07:22:38.527Z,980.57
2018-03-15T07:23:38.416Z,980.58
2018-03-15T07:25:31.277Z,980.46
2018-03-15T07:26:31.170Z,980.55
2018-03-15T07:28:24.027Z,980.56
2018-03-15T07:29:23.934Z,980.59
2018-03-15T07:31:16.811Z,980.59
2018-03-15T07:32:16.662Z,980.58
2018-03-15T07:34:09.518Z,980.60
2018-03-15T07:35:09.407Z,980.57
2018-03-15T07:37:02.289Z,980.63
2018-03-15T07:38:02.164Z,980.62
2018-03-15T07:39:55.028Z,980.62
2018-03-15T07:40:54.917Z,980.60
2018-03-15T07:42:47.782Z,980.55
2018-03-15T07:43:47.673Z,980.50
2018-03-15T07:45:40.534Z,980.49
2018-03-15T07:46:40.410Z,980.46
2018-03-15T07:48:33.276Z,980.43
2018-03-15T07:49:33.191Z,980.47
2018-03-15T07:51:26.033Z,980.44
2018-03-15T07:52:25.920Z,980.38
2018-03-15T07:54:18.789Z,980.31
2018-03-15T07:55:18.660Z,980.36
2018-03-15T07:57:11.547Z,980.35
2018-03-15T07:58:11.430Z,980.34
2018-03-15T08:00:04.276Z,980.31
2018-03-15T08:01:04.173Z,980.30
2018-03-15T08:02:57.938Z,980.24
2018-03-15T08:03:57.852Z,980.23
2018-03-15T08:05:50.718Z,980.22
2018-03-15T08:06:50.594Z,980.24
2018-03-15T08:08:43.456Z,980.13
2018-03-15T08:09:43.345Z,980.18
2018-03-15T08:11:36.302Z,980.13
2018-03-15T08:12:36.186Z,980.16
2018-03-15T08:14:29.042Z,980.09
2018-03-15T08:15:28.935Z,980.19
2018-03-15T08:17:22.072Z,980.07
2018-03-15T08:18:21.694Z,980.09
2018-03-15T08:20:14.554Z,980.04
2018-03-15T08:21:14.442Z,980.11
2018-03-15T08:23:07.299Z,979.96
2018-03-15T08:24:07.190Z,979.89
2018-03-15T08:26:00.046Z,979.95
2018-03-15T08:26:59.943Z,979.89
2018-03-15T08:28:52.812Z,979.90
2018-03-15T08:29:52.709Z,979.87
2018-03-15T08:31:45.545Z,979.88
2018-03-15T08:32:45.449Z,979.90
2018-03-15T08:34:38.323Z,980.04
2018-03-15T08:35:38.193Z,979.81
2018-03-15T08:37:31.035Z,979.80
2018-03-15T08:38:30.937Z,979.83
2018-03-15T08:40:23.812Z,979.78
2018-03-15T08:41:23.683Z,979.75
2018-03-15T08:43:17.154Z,979.75
2018-03-15T08:44:17.063Z,979.82
2018-03-15T08:46:10.129Z,979.78
2018-03-15T08:47:09.802Z,979.80
2018-03-15T08:49:02.647Z,979.81
2018-03-15T08:50:02.551Z,979.73
2018-03-15T08:51:55.936Z,979.76
2018-03-15T08:52:55.305Z,979.76
2018-03-15T08:54:48.161Z,979.74
2018-03-15T08:55:48.059Z,979.79
2018-03-15T08:57:40.905Z,979.81
2018-03-15T08:58:40.810Z,979.84
2018-03-15T09:00:33.642Z,979.87
2018-03-15T09:01:33.558Z,979.78
2018-03-15T09:03:26.413Z,979.83
2018-03-15T09:04:26.398Z,979.90
2018-03-15T09:06:19.702Z,979.99
2018-03-15T09:07:19.612Z,979.93
2018-03-15T09:09:12.484Z,979.94
2018-03-15T09:10:12.319Z,979.84
2018-03-15T09:12:05.149Z,979.82
2018-03-15T09:13:05.053Z,979.80
2018-03-15T09:14:58.438Z,979.77
2018-03-15T09:15:58.320Z,979.68
2018-03-15T09:17:51.191Z,979.69
2018-03-15T09:18:51.077Z,979.70
2018-03-15T09:20:43.918Z,979.64
2018-03-15T09:21:43.862Z,979.62
2018-03-15T09:23:36.724Z,979.67
2018-03-15T09:24:36.566Z,979.65
2018-03-15T09:26:29.434Z,979.55
2018-03-15T09:27:29.341Z,979.56
2018-03-15T09:29:22.181Z,979.64
2018-03-15T09:30:22.066Z,979.57
2018-03-15T09:32:14.921Z,979.60
2018-03-15T09:33:14.818Z,979.47
2018-03-15T09:35:07.702Z,979.51
2018-03-15T09:36:07.581Z,979.54
2018-03-15T09:38:00.324Z,979.56
2018-03-15T09:39:00.211Z,979.59
2018-03-15T09:40:54.615Z,979.53
2018-03-15T09:41:54.498Z,979.45
2018-03-15T09:43:47.344Z,979.44
2018-03-15T09:44:47.252Z,979.41
2018-03-15T09:46:40.174Z,979.41
2018-03-15T09:47:40.059Z,979.38
2018-03-15T09:49:32.862Z,979.36
2018-03-15T09:50:32.743Z,979.40
2018-03-15T09:52:25.616Z,979.47
2018-03-15T09:53:25.495Z,979.23
2018-03-15T09:55:18.358Z,979.24
2018-03-15T09:56:18.249Z,979.34
2018-03-15T09:58:11.114Z,979.32
2018-03-15T09:59:10.996Z,979.33
2018-03-15T10:01:03.849Z,979.21
2018-03-15T10:02:03.743Z,979.23
2018-03-15T10:03:56.629Z,979.27
2018-03-15T10:04:56.506Z,979.22
2018-03-15T10:06:49.546Z,979.26
2018-03-15T10:07:49.252Z,979.24
2018-03-15T10:09:42.110Z,979.16
2018-03-15T10:10:41.995Z,979.26
2018-03-15T10:12:34.852Z,979.17
2018-03-15T10:13:34.745Z,979.19
2018-03-15T10:15:27.726Z,979.21
2018-03-15T10:16:27.605Z,979.16
2018-03-15T10:18:20.462Z,979.16
2018-03-15T10:19:20.347Z,979.20
2018-03-15T10:21:13.220Z,979.18
2018-03-15T10:22:13.151Z,979.11
2018-03-15T10:24:05.947Z,979.13
2018-03-15T10:25:13.610Z,979.12
2018-03-15T10:26:58.710Z,979.15
2018-03-15T10:27:58.614Z,979.12
2018-03-15T10:29:51.462Z,979.10
2018-03-15T10:30:51.347Z,979.08
2018-03-15T10:32:44.203Z,979.02
2018-03-15T10:33:44.095Z,979.06
2018-03-15T10:35:36.963Z,979.06
2018-03-15T10:36:36.851Z,979.02
2018-03-15T10:38:29.708Z,978.96
2018-03-15T10:39:29.602Z,979.00
2018-03-15T10:41:22.478Z,978.91
2018-03-15T10:42:22.357Z,978.90
2018-03-15T10:44:15.714Z,978.91
2018-03-15T10:45:15.601Z,979.03
2018-03-15T10:47:08.490Z,978.98
2018-03-15T10:48:08.352Z,978.88
2018-03-15T10:50:01.711Z,978.90
2018-03-15T10:51:01.620Z,978.92
2018-03-15T10:52:54.494Z,978.93
2018-03-15T10:53:54.384Z,978.85
2018-03-15T10:55:47.215Z,978.86
2018-03-15T10:56:47.131Z,978.84
2018-03-15T10:58:40.050Z,978.84
2018-03-15T10:59:39.869Z,978.83
2018-03-15T11:01:32.734Z,978.76
2018-03-15T11:02:32.620Z,978.74
2018-03-15T11:04:25.488Z,978.69
2018-03-15T11:05:25.361Z,978.66
2018-03-15T11:07:18.217Z,978.68
2018-03-15T11:08:18.111Z,978.58
2018-03-15T11:10:10.977Z,978.58
2018-03-15T11:11:11.127Z,978.63
2018-03-15T11:13:03.712Z,978.64
2018-03-15T11:14:03.610Z,978.50
2018-03-15T11:15:56.980Z,978.59
2018-03-15T11:16:56.366Z,978.57
2018-03-15T11:19:00.474Z,978.58
2018-03-15T11:20:00.374Z,978.59
2018-03-15T11:21:56.319Z,978.56
2018-03-15T11:22:56.197Z,978.51
2018-03-15T11:24:50.578Z,978.41
2018-03-15T11:25:50.486Z,978.43
2018-03-15T11:27:50.838Z,978.44
2018-03-15T11:28:50.722Z,978.46
2018-03-15T11:30:44.071Z,978.44
2018-03-15T11:31:43.969Z,978.44
2018-03-15T11:33:41.871Z,978.37
2018-03-15T11:34:41.738Z,978.40
2018-03-15T11:36:34.584Z,978.37
2018-03-15T11:37:34.494Z,978.38
2018-03-15T11:39:27.874Z,978.35
2018-03-15T11:40:27.769Z,978.33
2018-03-15T11:42:23.692Z,978.23
2018-03-15T11:43:23.573Z,978.19
2018-03-15T11:45:16.963Z,978.08
2018-03-15T11:46:16.833Z,978.00
2018-03-15T11:48:09.679Z,978.01
2018-03-15T11:49:09.579Z,977.97
2018-03-15T11:51:02.447Z,977.99
2018-03-15T11:52:02.337Z,977.93
2018-03-15T11:53:55.216Z,978.00
2018-03-15T11:54:55.084Z,977.97
2018-03-15T11:56:47.985Z,977.90
2018-03-15T11:57:47.835Z,977.89
2018-03-15T11:59:40.694Z,977.93
2018-03-15T12:00:40.614Z,977.92
2018-03-15T12:02:33.441Z,977.88
2018-03-15T12:03:33.346Z,977.81
2018-03-15T12:05:26.694Z,977.78
2018-03-15T12:06:26.593Z,977.81
2018-03-15T12:08:19.452Z,977.82
2018-03-15T12:09:19.342Z,977.74
2018-03-15T12:11:12.189Z,977.91
2018-03-15T12:12:12.111Z,977.73
2018-03-15T12:14:05.095Z,977.68
2018-03-15T12:15:04.846Z,977.67
2018-03-15T12:16:58.214Z,977.65
2018-03-15T12:17:58.113Z,977.66
2018-03-15T12:19:51.119Z,977.66
2018-03-15T12:20:50.961Z,977.72
2018-03-15T12:22:43.801Z,977.66
2018-03-15T12:23:43.704Z,977.68
2018-03-15T12:25:36.563Z,977.60
2018-03-15T12:26:36.472Z,977.56
2018-03-15T12:28:29.402Z,977.57
2018-03-15T12:29:29.314Z,977.53
2018-03-15T12:31:22.195Z,977.57
2018-03-15T12:32:22.061Z,977.60
2018-03-15T12:34:14.905Z,977.57
2018-03-15T12:35:14.809Z,977.52
2018-03-15T12:37:07.785Z,977.51
2018-03-15T12:38:07.658Z,977.42
2018-03-15T12:40:00.509Z,977.42
2018-03-15T12:41:00.409Z,977.35
2018-03-15T12:42:53.272Z,977.42
2018-03-15T12:43:53.159Z,977.36
2018-03-15T12:45:46.016Z,977.38
2018-03-15T12:46:45.910Z,977.31
2018-03-15T12:48:38.789Z,977.22
2018-03-15T12:49:38.656Z,977.25
2018-03-15T12:51:31.510Z,977.30
2018-03-15T12:52:31.403Z,977.21
2018-03-15T12:54:24.361Z,977.23
2018-03-15T12:55:24.264Z,977.20
2018-03-15T12:57:17.150Z,977.10
2018-03-15T12:58:17.017Z,977.13
2018-03-15T13:00:09.875Z,977.05
2018-03-15T13:01:09.764Z,977.13
2018-03-15T13:03:02.627Z,977.07
2018-03-15T13:04:02.536Z,977.01
2018-03-15T13:05:55.392Z,977.05
2018-03-15T13:06:55.263Z,977.05
2018-03-15T13:08:48.122Z,976.95
2018-03-15T13:09:48.004Z,976.92
2018-03-15T13:11:40.885Z,976.99
2018-03-15T13:12:40.760Z,977.01
2018-03-15T13:14:33.603Z,976.91
2018-03-15T13:15:33.563Z,976.96
2018-03-15T13:17:26.397Z,976.99
2018-03-15T13:18:26.255Z,977.05
2018-03-15T13:20:19.125Z,977.02
2018-03-15T13:21:19.027Z,977.02
2018-03-15T13:23:11.897Z,976.98
2018-03-15T13:24:11.755Z,977.00
2018-03-15T13:26:04.620Z,977.05
2018-03-15T13:27:04.537Z,977.08
2018-03-15T13:28:57.375Z,977.16
2018-03-15T13:29:57.288Z,977.11
2018-03-15T13:31:50.115Z,977.12
2018-03-15T13:32:50.010Z,977.18
2018-03-15T13:34:42.884Z,977.18
2018-03-15T13:35:42.752Z,977.24
2018-03-15T13:37:35.604Z,977.14
2018-03-15T13:38:35.510Z,977.20
2018-03-15T13:40:28.380Z,977.14
2018-03-15T13:41:28.256Z,977.13
2018-03-15T13:43:21.114Z,977.12
2018-03-15T13:44:21.014Z,977.17
2018-03-15T13:46:13.869Z,977.11
2018-03-15T13:47:13.763Z,977.14
2018-03-15T13:49:06.628Z,977.06
2018-03-15T13:50:06.507Z,977.08
2018-03-15T13:51:59.416Z,977.06
2018-03-15T13:52:59.252Z,977.04
2018-03-15T13:54:52.100Z,977.00
2018-03-15T13:55:52.002Z,976.96
2018-03-15T13:57:45.381Z,976.91
2018-03-15T13:58:45.264Z,976.86
2018-03-15T14:00:38.106Z,976.82
2018-03-15T14:01:38.014Z,976.82
2018-03-15T14:03:30.872Z,976.74
2018-03-15T14:04:30.765Z,976.77
2018-03-15T14:06:23.612Z,976.74
2018-03-15T14:07:23.511Z,976.72
2018-03-15T14:09:16.378Z,976.68
2018-03-15T14:10:16.276Z,976.67
2018-03-15T14:12:09.109Z,976.67
2018-03-15T14:13:09.013Z,976.62
2018-03-15T14:15:01.862Z,976.60
2018-03-15T14:16:01.775Z,976.63
2018-03-15T14:17:54.606Z,976.60
2018-03-15T14:18:54.510Z,976.60
2018-03-15T14:20:47.362Z,976.61
2018-03-15T14:21:47.270Z,976.65
2018-03-15T14:23:40.160Z,976.64
2018-03-15T14:24:40.070Z,976.48
2018-03-15T14:26:33.393Z,976.42
2018-03-15T14:27:33.297Z,976.28
2018-03-15T14:29:26.175Z,976.38
2018-03-15T14:30:26.021Z,976.46
2018-03-15T14:32:18.886Z,976.52
2018-03-15T14:33:18.784Z,976.55
2018-03-15T14:35:11.630Z,976.31
2018-03-15T14:36:11.518Z,976.42
2018-03-15T14:38:04.387Z,976.37
2018-03-15T14:39:04.265Z,976.51
2018-03-15T14:40:57.137Z,976.37
2018-03-15T14:41:57.014Z,976.31
2018-03-15T14:43:49.931Z,976.40
2018-03-15T14:44:49.762Z,976.29
2018-03-15T14:46:42.627Z,976.41
2018-03-15T14:47:42.513Z,976.47
2018-03-15T14:49:35.469Z,976.43
2018-03-15T14:50:35.359Z,976.52
2018-03-15T14:52:28.239Z,976.53
2018-03-15T14:53:28.123Z,976.46
2018-03-15T14:55:21.088Z,976.46
2018-03-15T14:56:20.964Z,976.52
2018-03-15T14:58:13.822Z,976.55
2018-03-15T14:59:13.716Z,976.50
2018-03-15T15:01:06.574Z,976.49
2018-03-15T15:02:06.472Z,976.44
2018-03-15T15:03:59.316Z,976.48
2018-03-15T15:04:59.217Z,976.46
2018-03-15T15:06:52.072Z,976.43
2018-03-15T15:07:51.961Z,976.57
2018-03-15T15:09:44.823Z,976.45
2018-03-15T15:10:44.711Z,976.36
2018-03-15T15:12:37.597Z,976.35
2018-03-15T15:13:37.464Z,976.31
2018-03-15T15:15:30.306Z,976.35
2018-03-15T15:16:30.230Z,976.39
2018-03-15T15:18:23.068Z,976.50
2018-03-15T15:19:22.964Z,976.47
2018-03-15T15:21:15.826Z,976.37
2018-03-15T15:22:15.761Z,976.52
2018-03-15T15:24:08.585Z,976.44
2018-03-15T15:25:08.480Z,976.32
2018-03-15T15:27:01.316Z,976.38
2018-03-15T15:28:01.212Z,976.41
2018-03-15T15:29:54.180Z,976.43
2018-03-15T15:30:54.148Z,976.39
2018-03-15T15:32:47.443Z,976.36
2018-03-15T15:33:46.939Z,976.33
2018-03-15T15:35:39.873Z,976.31
2018-03-15T15:36:39.765Z,976.24
2018-03-15T15:38:33.149Z,976.29
2018-03-15T15:39:33.050Z,976.26
2018-03-15T15:41:25.986Z,976.22
2018-03-15T15:42:25.882Z,976.27
2018-03-15T15:44:19.393Z,976.17
2018-03-15T15:45:19.240Z,976.25
2018-03-15T15:47:12.600Z,976.37
2018-03-15T15:48:12.500Z,976.31
2018-03-15T15:50:05.870Z,976.40
2018-03-15T15:51:05.817Z,976.32
2018-03-15T15:52:58.613Z,976.33
2018-03-15T15:53:58.509Z,976.31
2018-03-15T15:55:51.378Z,976.32
2018-03-15T15:56:51.261Z,976.32
2018-03-15T15:58:44.110Z,976.37
2018-03-15T15:59:44.015Z,976.35
2018-03-15T16:01:38.415Z,976.40
2018-03-15T16:02:38.307Z,976.40
2018-03-15T16:04:31.148Z,976.40
2018-03-15T16:05:31.048Z,976.42
2018-03-15T16:07:23.923Z,976.48
2018-03-15T16:08:23.793Z,976.47
2018-03-15T16:10:16.672Z,976.56
2018-03-15T16:11:16.555Z,976.51
2018-03-15T16:13:09.528Z,976.51
2018-03-15T16:14:09.296Z,976.60
2018-03-15T16:16:02.168Z,976.54
2018-03-15T16:17:02.050Z,976.59
2018-03-15T16:18:55.026Z,976.60
2018-03-15T16:19:54.931Z,976.63
2018-03-15T16:21:47.927Z,976.59
2018-03-15T16:22:47.754Z,976.65
2018-03-15T16:24:40.499Z,976.55
2018-03-15T16:25:40.405Z,976.65
2018-03-15T16:27:33.396Z,976.55
2018-03-15T16:28:33.286Z,976.61
2018-03-15T16:30:26.094Z,976.60
2018-03-15T16:31:26.022Z,976.60
2018-03-15T16:33:19.569Z,976.60
2018-03-15T16:34:19.475Z,976.63
2018-03-15T16:36:12.213Z,976.71
2018-03-15T16:37:12.135Z,976.69
2018-03-15T16:39:04.903Z,976.71
2018-03-15T16:40:04.766Z,976.65
2018-03-15T16:41:57.601Z,976.70
2018-03-15T16:42:57.532Z,976.67
2018-03-15T16:44:50.280Z,976.70
2018-03-15T16:45:50.164Z,976.66
2018-03-15T16:47:42.909Z,976.69
2018-03-15T16:48:42.806Z,976.71
2018-03-15T16:50:35.635Z,976.77
2018-03-15T16:51:35.451Z,976.73
2018-03-15T16:53:28.207Z,976.73
2018-03-15T16:54:28.095Z,976.75
2018-03-15T16:56:21.094Z,976.70
2018-03-15T16:57:20.953Z,976.67
2018-03-15T16:59:14.348Z,976.74
2018-03-15T17:00:14.292Z,976.68
2018-03-15T17:02:06.990Z,976.72
2018-03-15T17:03:07.464Z,976.79
2018-03-15T17:04:59.611Z,976.73
2018-03-15T17:05:59.515Z,976.74
2018-03-15T17:07:52.366Z,976.69
2018-03-15T17:08:52.303Z,976.75
2018-03-15T17:10:45.149Z,976.76
2018-03-15T17:11:45.198Z,976.72
2018-03-15T17:13:37.851Z,976.72
2018-03-15T17:14:37.760Z,976.77
2018-03-15T17:16:30.618Z,976.71
2018-03-15T17:17:30.519Z,976.73
2018-03-15T17:19:23.388Z,976.78
2018-03-15T17:20:23.293Z,976.84
2018-03-15T17:22:16.141Z,976.73
2018-03-15T17:23:16.034Z,976.75
2018-03-15T17:25:08.905Z,976.73
2018-03-15T17:26:08.792Z,976.66
2018-03-15T17:28:01.637Z,976.82
2018-03-15T17:29:01.507Z,976.80
2018-03-15T17:30:54.350Z,976.81
2018-03-15T17:31:54.263Z,976.89
2018-03-15T17:33:47.117Z,976.93
2018-03-15T17:34:47.002Z,976.82
2018-03-15T17:36:40.295Z,976.84
2018-03-15T17:37:40.205Z,976.88
2018-03-15T17:39:33.065Z,976.88
2018-03-15T17:40:32.908Z,976.89
2018-03-15T17:42:25.765Z,976.87
2018-03-15T17:43:25.656Z,976.85
2018-03-15T17:45:19.035Z,976.93
2018-03-15T17:46:18.931Z,976.88
2018-03-15T17:48:11.673Z,977.05
2018-03-15T17:49:11.566Z,976.91
2018-03-15T17:51:04.434Z,976.91
2018-03-15T17:52:04.318Z,976.96
2018-03-15T17:53:57.156Z,976.93
2018-03-15T17:54:57.064Z,977.05
2018-03-15T17:56:49.934Z,977.05
2018-03-15T17:57:49.816Z,976.95
2018-03-15T17:59:42.563Z,976.99